createdAt,value
2018-10-05T00:02:05.858Z,99.90
2018-10-05T00:04:31.864Z,99.90
2018-10-05T00:06:57.870Z,99.90
2018-10-05T00:09:23.849Z,99.90
2018-10-05T00:11:50.324Z,99.90
2018-10-05T00:14:17.022Z,99.90
2018-10-05T00:16:43.016Z,99.90
2018-10-05T00:19:09.001Z,99.90
2018-10-05T00:21:35.699Z,99.90
2018-10-05T00:24:01.692Z,99.90
2018-10-05T00:26:27.672Z,99.90
2018-10-05T00:28:54.417Z,99.90
2018-10-05T00:31:21.141Z,99.90
2018-10-05T00:33:47.128Z,99.90
2018-10-05T00:36:13.114Z,99.90
2018-10-05T00:38:39.854Z,99.90
2018-10-05T00:41:05.845Z,99.90
2018-10-05T00:43:31.847Z,99.90
2018-10-05T00:45:57.826Z,99.90
2018-10-05T00:48:24.522Z,99.90
2018-10-05T00:50:50.533Z,99.90
2018-10-05T00:53:16.575Z,99.90
2018-10-05T00:55:42.544Z,99.90
2018-10-05T00:58:08.522Z,99.90
2018-10-05T01:00:34.500Z,99.90
2018-10-05T01:03:01.213Z,99.90
2018-10-05T01:05:27.956Z,99.90
2018-10-05T01:07:54.674Z,99.90
2018-10-05T01:10:20.678Z,99.90
2018-10-05T01:12:46.648Z,99.90
2018-10-05T01:15:12.642Z,99.90
2018-10-05T01:17:38.610Z,99.90
2018-10-05T01:20:04.623Z,99.90
2018-10-05T01:22:30.598Z,99.90
2018-10-05T01:24:56.708Z,99.90
2018-10-05T01:27:22.611Z,99.90
2018-10-05T01:29:48.590Z,99.90
2018-10-05T01:32:14.607Z,99.90
2018-10-05T01:34:40.587Z,99.90
2018-10-05T01:37:06.582Z,99.90
2018-10-05T01:39:32.582Z,99.90
2018-10-05T01:41:58.585Z,99.90
2018-10-05T01:44:24.569Z,99.90
2018-10-05T01:46:50.592Z,99.90
2018-10-05T01:49:16.572Z,99.90
2018-10-05T01:51:42.499Z,99.90
2018-10-05T01:54:09.246Z,99.90
2018-10-05T01:56:35.956Z,99.90
2018-10-05T01:59:01.934Z,99.90
2018-10-05T02:01:27.902Z,99.90
2018-10-05T02:03:53.889Z,99.90
2018-10-05T02:06:19.859Z,99.90
2018-10-05T02:08:45.879Z,99.90
2018-10-05T02:11:11.855Z,99.90
2018-10-05T02:13:37.870Z,99.90
2018-10-05T02:16:03.860Z,99.90
2018-10-05T02:18:29.855Z,99.90
2018-10-05T02:20:55.837Z,99.90
2018-10-05T02:23:21.792Z,99.90
2018-10-05T02:25:47.775Z,99.90
2018-10-05T02:28:13.752Z,99.90
2018-10-05T02:30:39.777Z,99.90
2018-10-05T02:33:05.817Z,99.90
2018-10-05T02:35:31.788Z,99.90
2018-10-05T02:37:57.748Z,99.90
2018-10-05T02:40:23.748Z,99.90
2018-10-05T02:42:49.717Z,99.90
2018-10-05T02:45:16.457Z,99.90
2018-10-05T02:47:43.189Z,99.90
2018-10-05T02:50:09.168Z,99.90
2018-10-05T02:52:35.197Z,99.90
2018-10-05T02:55:01.206Z,99.90
2018-10-05T02:57:27.197Z,99.90
2018-10-05T02:59:53.902Z,99.90
2018-10-05T03:02:19.893Z,99.90
2018-10-05T03:04:45.862Z,99.90
2018-10-05T03:07:11.819Z,99.90
2018-10-05T03:09:38.536Z,99.90
2018-10-05T03:12:04.491Z,99.90
2018-10-05T03:14:30.499Z,99.90
2018-10-05T03:16:57.220Z,99.90
2018-10-05T03:19:23.195Z,99.90
2018-10-05T03:21:49.913Z,99.90
2018-10-05T03:24:15.910Z,99.90
2018-10-05T03:26:42.613Z,99.90
2018-10-05T03:29:08.606Z,99.90
2018-10-05T03:31:34.572Z,99.90
2018-10-05T03:34:00.604Z,99.90
2018-10-05T03:36:26.579Z,99.90
2018-10-05T03:38:52.508Z,99.90
2018-10-05T03:41:18.505Z,99.90
2018-10-05T03:43:44.486Z,99.90
2018-10-05T03:46:10.479Z,99.90
2018-10-05T03:48:36.440Z,99.90
2018-10-05T03:51:03.190Z,99.90
2018-10-05T03:53:29.897Z,99.90
2018-10-05T03:55:55.897Z,99.90
2018-10-05T03:58:21.884Z,99.90
2018-10-05T04:00:48.610Z,99.90
2018-10-05T04:03:14.619Z,99.90
2018-10-05T04:05:40.585Z,99.90
2018-10-05T04:08:06.565Z,99.90
2018-10-05T04:10:32.516Z,99.90
2018-10-05T04:12:59.248Z,99.90
2018-10-05T04:15:25.961Z,99.90
2018-10-05T04:17:51.962Z,99.90
2018-10-05T04:20:17.920Z,99.90
2018-10-05T04:22:43.921Z,99.90
2018-10-05T04:25:09.879Z,99.90
2018-10-05T04:27:35.832Z,99.90
2018-10-05T04:30:01.806Z,99.90
2018-10-05T04:32:27.777Z,99.90
2018-10-05T04:34:53.784Z,99.90
2018-10-05T04:37:20.488Z,99.90
2018-10-05T04:39:46.473Z,99.90
2018-10-05T04:42:12.449Z,99.90
2018-10-05T04:44:38.432Z,99.90
2018-10-05T04:47:04.412Z,99.90
2018-10-05T04:49:31.160Z,99.90
2018-10-05T04:51:57.162Z,99.90
2018-10-05T04:54:23.890Z,99.90
2018-10-05T04:56:49.871Z,99.90
2018-10-05T04:59:15.870Z,99.90
2018-10-05T05:01:41.812Z,99.90
2018-10-05T05:04:07.808Z,99.90
2018-10-05T05:06:33.765Z,99.90
2018-10-05T05:08:59.748Z,99.90
2018-10-05T05:11:26.470Z,99.90
2018-10-05T05:13:52.434Z,99.90
2018-10-05T05:16:18.432Z,99.90
2018-10-05T05:18:44.410Z,99.90
2018-10-05T05:21:10.427Z,99.90
2018-10-05T05:23:36.397Z,99.90
2018-10-05T05:26:03.135Z,99.90
2018-10-05T05:28:29.104Z,99.90
2018-10-05T05:30:55.079Z,99.90
2018-10-05T05:33:21.827Z,99.90
2018-10-05T05:35:48.565Z,99.90
2018-10-05T05:38:15.276Z,99.90
2018-10-05T05:40:41.238Z,99.90
2018-10-05T05:43:07.961Z,99.90
2018-10-05T05:45:33.923Z,99.90
2018-10-05T05:47:59.890Z,99.90
2018-10-05T05:50:25.864Z,99.90
2018-10-05T05:52:51.894Z,99.90
2018-10-05T05:55:17.882Z,99.90
2018-10-05T05:57:44.634Z,99.90
2018-10-05T06:00:11.326Z,99.90
2018-10-05T06:02:37.296Z,99.90
2018-10-05T06:05:03.261Z,99.90
2018-10-05T06:07:29.180Z,99.90
2018-10-05T06:09:55.155Z,99.90
2018-10-05T06:12:21.847Z,99.90
2018-10-05T06:14:47.854Z,99.90
2018-10-05T06:17:13.821Z,99.90
2018-10-05T06:19:39.788Z,99.90
2018-10-05T06:22:05.836Z,99.90
2018-10-05T06:24:31.758Z,99.90
2018-10-05T06:26:57.760Z,99.90
2018-10-05T06:29:23.762Z,99.90
2018-10-05T06:31:49.760Z,99.90
2018-10-05T06:34:15.719Z,99.90
2018-10-05T06:36:42.473Z,99.90
2018-10-05T06:39:08.508Z,99.90
2018-10-05T06:41:35.192Z,99.90
2018-10-05T06:44:01.206Z,99.90
2018-10-05T06:46:27.174Z,99.90
2018-10-05T06:48:53.214Z,99.90
2018-10-05T06:51:19.163Z,99.90
2018-10-05T06:53:45.169Z,99.90
2018-10-05T06:56:11.143Z,99.90
2018-10-05T06:58:37.881Z,99.90
2018-10-05T07:01:03.829Z,99.90
2018-10-05T07:03:29.827Z,99.90
2018-10-05T07:05:56.551Z,99.90
2018-10-05T07:08:22.541Z,99.90
2018-10-05T07:10:48.500Z,99.90
2018-10-05T07:13:14.506Z,99.90
2018-10-05T07:15:40.474Z,99.90
2018-10-05T07:18:06.468Z,99.90
2018-10-05T07:20:32.452Z,99.90
2018-10-05T07:22:58.465Z,99.90
2018-10-05T07:25:24.469Z,99.90
2018-10-05T07:27:50.500Z,99.90
2018-10-05T07:30:16.494Z,99.90
2018-10-05T07:32:43.232Z,99.90
2018-10-05T07:35:09.239Z,99.90
2018-10-05T07:37:35.213Z,99.90
2018-10-05T07:40:01.169Z,99.90
2018-10-05T07:42:27.195Z,99.90
2018-10-05T07:44:53.178Z,99.90
2018-10-05T07:47:19.157Z,99.90
2018-10-05T07:49:45.117Z,99.80
2018-10-05T07:52:11.109Z,99.20
2018-10-05T07:54:37.066Z,98.70
2018-10-05T07:57:03.088Z,98.80
2018-10-05T07:59:29.034Z,98.00
2018-10-05T08:01:55.057Z,96.70
2018-10-05T08:04:21.008Z,96.30
2018-10-05T08:06:47.005Z,97.30
2018-10-05T08:09:12.988Z,97.10
2018-10-05T08:11:39.711Z,97.40
2018-10-05T08:14:05.683Z,97.40
2018-10-05T08:16:31.708Z,97.40
2018-10-05T08:18:57.669Z,96.10
2018-10-05T08:21:23.728Z,95.20
2018-10-05T08:23:50.433Z,93.00
2018-10-05T08:26:16.449Z,93.30
2018-10-05T08:28:42.421Z,93.40
2018-10-05T08:31:08.418Z,93.20
2018-10-05T08:33:35.164Z,93.30
2018-10-05T08:36:01.160Z,93.30
2018-10-05T08:38:27.158Z,92.50
2018-10-05T08:40:53.116Z,93.40
2018-10-05T08:43:19.085Z,92.70
2018-10-05T08:45:45.080Z,91.70
2018-10-05T08:48:11.825Z,91.80
2018-10-05T08:50:38.555Z,92.20
2018-10-05T08:53:05.267Z,93.00
2018-10-05T08:55:31.255Z,93.00
2018-10-05T08:57:57.213Z,90.90
2018-10-05T09:00:23.269Z,90.20
2018-10-05T09:02:49.235Z,90.30
2018-10-05T09:05:15.271Z,91.20
2018-10-05T09:07:41.254Z,89.00
2018-10-05T09:10:07.278Z,89.40
2018-10-05T09:12:33.253Z,89.60
2018-10-05T09:14:59.254Z,87.80
2018-10-05T09:17:25.254Z,88.00
2018-10-05T09:19:51.270Z,87.80
2018-10-05T09:22:17.273Z,88.80
2018-10-05T09:24:43.294Z,89.30
2018-10-05T09:27:10.084Z,87.10
2018-10-05T09:29:36.135Z,87.00
2018-10-05T09:32:02.122Z,87.90
2018-10-05T09:34:28.128Z,88.60
2018-10-05T09:36:54.115Z,87.30
2018-10-05T09:39:20.080Z,85.20
2018-10-05T09:41:46.132Z,86.50
2018-10-05T09:44:12.104Z,86.60
2018-10-05T09:46:38.841Z,88.20
2018-10-05T09:49:04.836Z,88.20
2018-10-05T09:51:30.853Z,87.80
2018-10-05T09:53:56.838Z,87.40
2018-10-05T09:56:22.826Z,86.00
2018-10-05T09:58:49.570Z,85.30
2018-10-05T10:01:16.276Z,85.10
2018-10-05T10:03:42.284Z,85.10
2018-10-05T10:06:08.255Z,85.60
2018-10-05T10:08:41.038Z,84.80
2018-10-05T10:11:07.014Z,84.30
2018-10-05T10:13:33.017Z,85.20
2018-10-05T10:15:58.969Z,83.10
2018-10-05T10:18:24.985Z,82.30
2018-10-05T10:20:50.985Z,82.00
2018-10-05T10:23:16.983Z,83.10
2018-10-05T10:25:43.042Z,84.90
2018-10-05T10:28:09.085Z,84.40
2018-10-05T10:30:35.062Z,81.80
2018-10-05T10:33:01.045Z,84.10
2018-10-05T10:35:27.051Z,82.10
2018-10-05T10:37:53.022Z,83.20
2018-10-05T10:40:18.996Z,82.20
2018-10-05T10:42:45.033Z,85.50
2018-10-05T10:45:11.139Z,85.20
2018-10-05T10:47:37.118Z,90.20
2018-10-05T10:50:03.859Z,90.20
2018-10-05T10:52:29.812Z,90.20
2018-10-05T10:54:55.798Z,91.90
2018-10-05T10:57:22.553Z,92.00
2018-10-05T10:59:49.255Z,93.30
2018-10-05T11:02:15.255Z,93.30
2018-10-05T11:04:41.387Z,93.80
2018-10-05T11:07:07.268Z,93.70
2018-10-05T11:09:33.250Z,94.40
2018-10-05T11:11:59.298Z,94.30
2018-10-05T11:14:25.280Z,94.10
2018-10-05T11:16:51.373Z,93.40
2018-10-05T11:19:17.341Z,94.30
2018-10-05T11:21:43.326Z,94.30
2018-10-05T11:24:09.320Z,94.30
2018-10-05T11:26:36.052Z,94.40
2018-10-05T11:29:02.799Z,94.00
2018-10-05T11:31:29.018Z,94.00
2018-10-05T11:33:55.017Z,94.70
2018-10-05T11:36:21.758Z,95.30
2018-10-05T11:38:47.810Z,95.20
2018-10-05T11:41:13.780Z,93.30
2018-10-05T11:43:39.918Z,93.90
2018-10-05T11:46:05.905Z,93.80
2018-10-05T11:48:32.654Z,94.20
2018-10-05T11:50:58.648Z,94.20
2018-10-05T11:53:25.381Z,93.50
2018-10-05T11:55:51.336Z,93.50
2018-10-05T11:58:17.307Z,93.50
2018-10-05T12:00:43.322Z,93.90
2018-10-05T12:03:09.282Z,93.50
2018-10-05T12:05:36.044Z,94.80
2018-10-05T12:08:02.036Z,94.80
2018-10-05T12:10:28.203Z,94.00
2018-10-05T12:17:32.323Z,94.60
2018-10-05T12:19:58.434Z,94.60
2018-10-05T12:22:24.368Z,94.50
2018-10-05T12:24:50.361Z,96.20
2018-10-05T12:27:16.388Z,95.90
2018-10-05T12:29:42.382Z,95.30
2018-10-05T12:32:08.407Z,96.00
2018-10-05T12:34:34.406Z,96.20
2018-10-05T12:37:00.428Z,95.50
2018-10-05T12:39:26.426Z,95.40
2018-10-05T12:41:53.233Z,95.80
2018-10-05T12:44:19.203Z,95.80
2018-10-05T12:46:45.920Z,95.30
2018-10-05T12:49:12.694Z,95.40
2018-10-05T12:51:38.677Z,95.50
2018-10-05T12:54:04.696Z,94.30
2018-10-05T12:56:30.696Z,94.90
2018-10-05T12:58:56.709Z,93.90
2018-10-05T13:01:22.682Z,95.00
2018-10-05T13:03:48.691Z,94.90
2018-10-05T13:06:14.683Z,94.60
2018-10-05T13:08:40.634Z,95.20
2018-10-05T13:11:06.639Z,93.70
2018-10-05T13:13:32.625Z,93.40
2018-10-05T13:15:58.626Z,93.80
2018-10-05T13:18:24.613Z,94.20
2018-10-05T13:20:50.656Z,94.60
2018-10-05T13:23:16.635Z,94.90
2018-10-05T13:25:42.652Z,93.70
2018-10-05T13:28:08.633Z,93.40
2018-10-05T13:30:34.625Z,94.30
2018-10-05T13:33:00.585Z,94.10
2018-10-05T13:35:26.577Z,93.50
2018-10-05T13:37:52.563Z,93.50
2018-10-05T13:40:18.594Z,93.60
2018-10-05T13:42:44.573Z,93.90
2018-10-05T13:45:11.335Z,93.90
2018-10-05T13:47:38.067Z,94.20
2018-10-05T13:50:04.808Z,93.80
2018-10-05T13:52:31.526Z,94.40
2018-10-05T13:54:57.513Z,94.30
2018-10-05T13:57:23.504Z,94.90
2018-10-05T13:59:49.515Z,94.30
2018-10-05T14:02:16.265Z,94.40
2018-10-05T14:04:42.240Z,94.40
2018-10-05T14:07:08.366Z,94.30
2018-10-05T14:09:34.252Z,94.00
2018-10-05T14:12:00.828Z,93.60
2018-10-05T14:14:26.816Z,94.60
2018-10-05T14:16:52.832Z,94.80
2018-10-05T14:19:18.885Z,94.40
2018-10-05T14:21:45.624Z,95.10
2018-10-05T14:24:12.289Z,94.40
2018-10-05T14:26:38.390Z,94.40
2018-10-05T14:29:04.360Z,94.80
2018-10-05T14:31:31.079Z,95.00
2018-10-05T14:33:57.115Z,95.00
2018-10-05T14:36:23.063Z,94.40
2018-10-05T14:38:49.790Z,94.20
2018-10-05T14:41:16.580Z,94.80
2018-10-05T14:43:42.571Z,94.80
2018-10-05T14:46:08.548Z,95.40
2018-10-05T14:48:34.569Z,94.40
2018-10-05T14:51:00.553Z,95.10
2018-10-05T14:53:26.538Z,95.00
2018-10-05T14:55:53.301Z,94.50
2018-10-05T14:58:19.286Z,94.80
2018-10-05T15:00:45.300Z,95.10
2018-10-05T15:03:11.289Z,95.30
2018-10-05T15:05:37.277Z,95.40
2018-10-05T15:08:03.984Z,95.40
2018-10-05T15:10:29.986Z,95.30
2018-10-05T15:12:56.026Z,95.40
2018-10-05T15:15:22.704Z,96.10
2018-10-05T15:17:49.426Z,96.70
2018-10-05T15:20:15.406Z,96.60
2018-10-05T15:22:41.403Z,97.20
2018-10-05T15:25:07.450Z,97.30
2018-10-05T15:27:33.456Z,97.50
2018-10-05T15:29:59.442Z,96.30
2018-10-05T15:32:25.460Z,96.10
2018-10-05T15:34:51.452Z,97.00
2018-10-05T15:37:17.435Z,96.90
2018-10-05T15:39:44.161Z,97.00
2018-10-05T15:42:10.138Z,97.00
2018-10-05T15:44:36.163Z,97.20
2018-10-05T15:47:02.132Z,97.10
2018-10-05T15:49:28.875Z,96.80
2018-10-05T15:51:55.587Z,97.20
2018-10-05T15:54:21.591Z,97.20
2018-10-05T15:56:47.565Z,98.30
2018-10-05T15:59:14.431Z,98.50
2018-10-05T16:01:40.340Z,98.50
2018-10-05T16:04:06.357Z,98.60
2018-10-05T16:06:32.374Z,98.40
2018-10-05T16:08:59.089Z,99.20
2018-10-05T16:11:25.090Z,99.10
2018-10-05T16:13:51.075Z,99.90
2018-10-05T16:16:17.092Z,99.90
2018-10-05T16:18:43.079Z,99.90
2018-10-05T16:21:09.102Z,99.90
2018-10-05T16:23:35.084Z,99.90
2018-10-05T16:26:01.072Z,99.90
2018-10-05T16:28:27.777Z,99.90
2018-10-05T16:30:53.812Z,99.90
2018-10-05T16:33:19.798Z,99.90
2018-10-05T16:35:45.808Z,99.90
2018-10-05T16:38:11.788Z,99.90
2018-10-05T16:40:37.800Z,99.90
2018-10-05T16:43:03.767Z,99.90
2018-10-05T16:45:30.491Z,99.90
2018-10-05T16:47:57.240Z,99.90
2018-10-05T16:50:23.932Z,99.90
2018-10-05T16:52:49.973Z,99.90
2018-10-05T16:55:15.951Z,99.90
2018-10-05T16:57:41.955Z,99.90
2018-10-05T17:00:08.656Z,99.90
2018-10-05T17:02:34.677Z,99.90
2018-10-05T17:05:00.657Z,99.90
2018-10-05T17:07:26.663Z,99.90
2018-10-05T17:09:52.629Z,99.90
2018-10-05T17:12:18.653Z,99.90
2018-10-05T17:14:44.647Z,99.90
2018-10-05T17:17:10.664Z,99.90
2018-10-05T17:19:37.410Z,99.90
2018-10-05T17:22:03.392Z,99.90
2018-10-05T17:24:29.392Z,99.90
2018-10-05T17:26:55.390Z,99.90
2018-10-05T17:29:21.437Z,99.90
2018-10-05T17:31:47.391Z,99.90
2018-10-05T17:34:13.408Z,99.90
2018-10-05T17:36:39.392Z,99.90
2018-10-05T17:39:06.181Z,99.90
2018-10-05T17:41:32.912Z,99.90
2018-10-05T17:43:58.938Z,99.90
2018-10-05T17:46:24.918Z,99.90
2018-10-05T17:48:50.940Z,99.90
2018-10-05T17:51:17.720Z,99.90
2018-10-05T17:53:44.478Z,99.90
2018-10-05T17:56:11.289Z,99.90
2018-10-05T17:58:37.275Z,99.90
2018-10-05T18:01:03.296Z,99.90
2018-10-05T18:03:29.278Z,99.90
2018-10-05T18:05:56.040Z,99.90
2018-10-05T18:08:22.831Z,99.90
2018-10-05T18:10:48.822Z,99.90
2018-10-05T18:13:14.816Z,99.90
2018-10-05T18:15:41.590Z,99.90
2018-10-05T18:18:07.588Z,99.90
2018-10-05T18:20:34.341Z,99.90
2018-10-05T18:23:01.067Z,99.90
2018-10-05T18:25:27.814Z,99.90
2018-10-05T18:27:54.522Z,99.90
2018-10-05T18:30:20.507Z,99.90
2018-10-05T18:32:46.471Z,99.90
2018-10-05T18:35:12.500Z,99.90
2018-10-05T18:37:39.229Z,99.90
2018-10-05T18:40:05.267Z,99.90
2018-10-05T18:42:31.245Z,99.90
2018-10-05T18:44:57.235Z,99.90
2018-10-05T18:47:23.207Z,99.90
2018-10-05T18:49:49.214Z,99.90
2018-10-05T18:52:15.267Z,99.90
2018-10-05T18:54:41.244Z,99.90
2018-10-05T18:57:07.244Z,99.90
2018-10-05T18:59:34.033Z,99.90
2018-10-05T19:02:00.746Z,99.90
2018-10-05T19:04:26.747Z,99.90
2018-10-05T19:06:53.503Z,99.90
2018-10-05T19:09:19.510Z,99.90
2018-10-05T19:11:45.514Z,99.90
2018-10-05T19:14:11.502Z,99.90
2018-10-05T19:16:37.539Z,99.90
2018-10-05T19:19:03.515Z,99.90
2018-10-05T19:21:29.567Z,99.90
2018-10-05T19:23:55.550Z,99.90
2018-10-05T19:26:22.412Z,99.90
2018-10-05T19:28:48.308Z,99.90
2018-10-05T19:31:14.300Z,99.90
2018-10-05T19:33:40.275Z,99.90
2018-10-05T19:36:07.076Z,99.90
2018-10-05T19:38:33.024Z,99.90
2018-10-05T19:40:59.051Z,99.90
2018-10-05T19:43:25.799Z,99.90
2018-10-05T19:45:52.519Z,99.90
2018-10-05T19:48:18.527Z,99.90
2018-10-05T19:50:44.535Z,99.90
2018-10-05T19:53:10.591Z,99.90
2018-10-05T19:55:36.597Z,99.90
2018-10-05T19:58:02.595Z,99.90
2018-10-05T20:00:28.584Z,99.90
2018-10-05T20:02:54.632Z,99.90
2018-10-05T20:05:20.631Z,99.90
2018-10-05T20:07:47.374Z,99.90
2018-10-05T20:10:13.372Z,99.90
2018-10-05T20:12:40.117Z,99.90
2018-10-05T20:15:06.877Z,99.90
2018-10-05T20:17:32.871Z,99.90
2018-10-05T20:19:58.898Z,99.90
2018-10-05T20:22:24.887Z,99.90
2018-10-05T20:24:50.903Z,99.90
2018-10-05T20:27:16.877Z,99.90
2018-10-05T20:29:42.868Z,99.90
2018-10-05T20:32:08.860Z,99.90
2018-10-05T20:34:34.857Z,99.90
2018-10-05T20:37:01.037Z,99.90
2018-10-05T20:39:26.828Z,99.90
2018-10-05T20:41:52.822Z,99.90
2018-10-05T20:44:19.523Z,99.90
2018-10-05T20:46:45.535Z,99.90
2018-10-05T20:49:11.485Z,99.90
2018-10-05T20:51:37.499Z,99.90
2018-10-05T20:54:04.254Z,99.90
2018-10-05T20:56:30.214Z,99.90
2018-10-05T20:58:56.217Z,99.90
2018-10-05T21:01:22.192Z,99.90
2018-10-05T21:03:48.217Z,99.90
2018-10-05T21:06:14.184Z,99.90
2018-10-05T21:08:40.934Z,99.90
2018-10-05T21:11:06.964Z,99.90
2018-10-05T21:13:32.976Z,99.90
2018-10-05T21:15:58.967Z,99.90
2018-10-05T21:18:25.769Z,99.90
2018-10-05T21:20:51.746Z,99.90
2018-10-05T21:23:18.483Z,99.90
2018-10-05T21:25:44.496Z,99.90
2018-10-05T21:28:10.479Z,99.90
2018-10-05T21:30:36.475Z,99.90
2018-10-05T21:33:03.529Z,99.90
2018-10-05T21:35:30.194Z,99.90
2018-10-05T21:37:56.178Z,99.90
2018-10-05T21:40:22.214Z,99.90
2018-10-05T21:42:48.197Z,99.90
2018-10-05T21:45:14.179Z,99.90
2018-10-05T21:47:40.182Z,99.90
2018-10-05T21:50:06.175Z,99.90
2018-10-05T21:52:32.232Z,99.90
2018-10-05T21:54:58.960Z,99.90
2018-10-05T21:57:25.774Z,99.90
2018-10-05T21:59:51.901Z,99.90
2018-10-05T22:02:18.946Z,99.90
2018-10-05T22:04:44.934Z,99.90
2018-10-05T22:07:10.924Z,99.90
2018-10-05T22:09:37.628Z,99.90
2018-10-05T22:12:03.688Z,99.90
2018-10-05T22:14:30.400Z,99.90
2018-10-05T22:16:56.452Z,99.90
2018-10-05T22:19:22.477Z,99.90
2018-10-05T22:21:48.510Z,99.90
2018-10-05T22:24:15.257Z,99.90
2018-10-05T22:26:42.000Z,99.90
2018-10-05T22:29:08.721Z,99.90
2018-10-05T22:31:34.693Z,99.90
2018-10-05T22:34:00.668Z,99.90
2018-10-05T22:36:27.390Z,99.90
2018-10-05T22:38:53.383Z,99.90
2018-10-05T22:41:19.319Z,99.90
2018-10-05T22:43:45.332Z,99.90
2018-10-05T22:46:11.296Z,99.90
2018-10-05T22:48:38.052Z,99.90
2018-10-05T22:51:04.058Z,99.90
2018-10-05T22:53:30.056Z,99.90
2018-10-05T22:55:56.041Z,99.90
2018-10-05T22:58:22.062Z,99.90
2018-10-05T23:00:48.049Z,99.90
2018-10-05T23:03:14.050Z,99.90
2018-10-05T23:05:39.994Z,99.90
2018-10-05T23:08:06.792Z,99.90
2018-10-05T23:10:32.772Z,99.90
2018-10-05T23:12:59.492Z,99.90
2018-10-05T23:15:26.229Z,99.90
2018-10-05T23:17:52.186Z,99.90
2018-10-05T23:20:18.186Z,99.90
2018-10-05T23:22:44.120Z,99.90
2018-10-05T23:25:10.877Z,99.90
2018-10-05T23:27:36.846Z,99.90
2018-10-05T23:30:02.865Z,99.90
2018-10-05T23:32:29.612Z,99.90
2018-10-05T23:34:56.430Z,99.90
2018-10-05T23:37:22.411Z,99.90
2018-10-05T23:39:48.404Z,99.90
2018-10-05T23:42:14.405Z,99.90
2018-10-05T23:44:40.401Z,99.90
2018-10-05T23:47:06.426Z,99.90
2018-10-05T23:49:32.432Z,99.90
2018-10-05T23:51:58.435Z,99.90
2018-10-05T23:54:25.164Z,99.90
2018-10-05T23:56:51.214Z,99.90
2018-10-05T23:59:17.908Z,99.90
